sensor_id;sensor_type;location;lat;lon;timestamp;temperature;humidity
74657;DHT22;63185;45.642;13.764;2024-02-23T00:01:40;12.60;79.30
74657;DHT22;63185;45.642;13.764;2024-02-23T00:04:06;12.60;79.60
74657;DHT22;63185;45.642;13.764;2024-02-23T00:06:33;12.50;79.60
74657;DHT22;63185;45.642;13.764;2024-02-23T00:08:59;12.50;80.00
74657;DHT22;63185;45.642;13.764;2024-02-23T00:11:25;12.60;79.70
74657;DHT22;63185;45.642;13.764;2024-02-23T00:13:51;12.60;79.90
74657;DHT22;63185;45.642;13.764;2024-02-23T00:16:16;12.60;79.60
74657;DHT22;63185;45.642;13.764;2024-02-23T00:18:42;12.60;79.80
74657;DHT22;63185;45.642;13.764;2024-02-23T00:21:07;12.40;80.00
74657;DHT22;63185;45.642;13.764;2024-02-23T00:23:33;12.50;80.10
74657;DHT22;63185;45.642;13.764;2024-02-23T00:25:59;12.40;80.40
74657;DHT22;63185;45.642;13.764;2024-02-23T00:28:25;12.50;80.40
74657;DHT22;63185;45.642;13.764;2024-02-23T00:30:50;12.50;80.50
74657;DHT22;63185;45.642;13.764;2024-02-23T00:33:16;12.40;80.60
74657;DHT22;63185;45.642;13.764;2024-02-23T00:35:41;12.40;80.60
74657;DHT22;63185;45.642;13.764;2024-02-23T00:38:07;12.40;80.50
74657;DHT22;63185;45.642;13.764;2024-02-23T00:40:33;12.40;80.50
74657;DHT22;63185;45.642;13.764;2024-02-23T00:42:59;12.40;80.40
74657;DHT22;63185;45.642;13.764;2024-02-23T00:45:26;12.50;80.40
74657;DHT22;63185;45.642;13.764;2024-02-23T00:47:52;12.30;80.60
74657;DHT22;63185;45.642;13.764;2024-02-23T00:50:17;12.30;80.70
74657;DHT22;63185;45.642;13.764;2024-02-23T00:52:43;12.30;80.30
74657;DHT22;63185;45.642;13.764;2024-02-23T00:55:09;12.30;80.60
74657;DHT22;63185;45.642;13.764;2024-02-23T00:57:35;12.30;80.40
74657;DHT22;63185;45.642;13.764;2024-02-23T01:00:02;12.30;80.50
74657;DHT22;63185;45.642;13.764;2024-02-23T01:02:31;12.40;80.40
74657;DHT22;63185;45.642;13.764;2024-02-23T01:04:56;12.30;80.10
74657;DHT22;63185;45.642;13.764;2024-02-23T01:07:24;12.40;80.00
74657;DHT22;63185;45.642;13.764;2024-02-23T01:09:50;12.40;79.90
74657;DHT22;63185;45.642;13.764;2024-02-23T01:12:16;12.40;80.00
74657;DHT22;63185;45.642;13.764;2024-02-23T01:14:41;12.30;79.80
74657;DHT22;63185;45.642;13.764;2024-02-23T01:17:07;12.40;80.00
74657;DHT22;63185;45.642;13.764;2024-02-23T01:19:32;12.40;79.80
74657;DHT22;63185;45.642;13.764;2024-02-23T01:21:58;12.40;79.50
74657;DHT22;63185;45.642;13.764;2024-02-23T01:24:27;12.30;79.90
74657;DHT22;63185;45.642;13.764;2024-02-23T01:26:55;12.30;79.70
74657;DHT22;63185;45.642;13.764;2024-02-23T01:29:21;12.30;79.60
74657;DHT22;63185;45.642;13.764;2024-02-23T01:31:48;12.30;79.90
74657;DHT22;63185;45.642;13.764;2024-02-23T01:34:14;12.30;79.90
74657;DHT22;63185;45.642;13.764;2024-02-23T01:36:40;12.30;80.20
74657;DHT22;63185;45.642;13.764;2024-02-23T01:39:06;12.30;80.30
74657;DHT22;63185;45.642;13.764;2024-02-23T01:41:32;12.30;79.90
74657;DHT22;63185;45.642;13.764;2024-02-23T01:43:58;12.30;79.80
74657;DHT22;63185;45.642;13.764;2024-02-23T01:46:24;12.30;80.10
74657;DHT22;63185;45.642;13.764;2024-02-23T01:48:50;12.30;80.30
74657;DHT22;63185;45.642;13.764;2024-02-23T01:51:16;12.40;79.90
74657;DHT22;63185;45.642;13.764;2024-02-23T01:53:42;12.30;79.80
74657;DHT22;63185;45.642;13.764;2024-02-23T01:56:08;12.30;79.90
74657;DHT22;63185;45.642;13.764;2024-02-23T01:58:35;12.30;79.80
74657;DHT22;63185;45.642;13.764;2024-02-23T02:01:02;12.30;79.90
74657;DHT22;63185;45.642;13.764;2024-02-23T02:03:28;12.20;79.70
74657;DHT22;63185;45.642;13.764;2024-02-23T02:05:54;12.30;80.00
74657;DHT22;63185;45.642;13.764;2024-02-23T02:08:20;12.20;80.00
74657;DHT22;63185;45.642;13.764;2024-02-23T02:10:46;12.20;80.00
74657;DHT22;63185;45.642;13.764;2024-02-23T02:13:13;12.20;80.00
74657;DHT22;63185;45.642;13.764;2024-02-23T02:15:39;12.20;80.50
74657;DHT22;63185;45.642;13.764;2024-02-23T02:18:04;12.20;80.30
74657;DHT22;63185;45.642;13.764;2024-02-23T02:20:32;12.20;80.20
74657;DHT22;63185;45.642;13.764;2024-02-23T02:22:59;12.20;80.50
74657;DHT22;63185;45.642;13.764;2024-02-23T02:25:25;12.20;80.30
74657;DHT22;63185;45.642;13.764;2024-02-23T02:27:50;12.20;80.40
74657;DHT22;63185;45.642;13.764;2024-02-23T02:30:16;12.10;80.50
74657;DHT22;63185;45.642;13.764;2024-02-23T02:32:42;12.20;80.50
74657;DHT22;63185;45.642;13.764;2024-02-23T02:35:09;12.10;80.60
74657;DHT22;63185;45.642;13.764;2024-02-23T02:37:35;12.20;80.50
74657;DHT22;63185;45.642;13.764;2024-02-23T02:40:02;12.10;80.40
74657;DHT22;63185;45.642;13.764;2024-02-23T02:42:28;12.10;80.10
74657;DHT22;63185;45.642;13.764;2024-02-23T02:44:54;12.10;80.00
74657;DHT22;63185;45.642;13.764;2024-02-23T02:47:20;12.10;80.40
74657;DHT22;63185;45.642;13.764;2024-02-23T02:49:45;12.10;79.90
74657;DHT22;63185;45.642;13.764;2024-02-23T02:52:11;12.10;79.90
74657;DHT22;63185;45.642;13.764;2024-02-23T02:54:37;12.10;79.50
74657;DHT22;63185;45.642;13.764;2024-02-23T02:57:02;12.10;79.40
74657;DHT22;63185;45.642;13.764;2024-02-23T02:59:28;12.10;79.10
74657;DHT22;63185;45.642;13.764;2024-02-23T03:01:54;12.10;79.30
74657;DHT22;63185;45.642;13.764;2024-02-23T03:04:20;12.10;79.20
74657;DHT22;63185;45.642;13.764;2024-02-23T03:06:49;12.10;79.50
74657;DHT22;63185;45.642;13.764;2024-02-23T03:09:14;12.20;79.50
74657;DHT22;63185;45.642;13.764;2024-02-23T03:11:40;12.10;79.60
74657;DHT22;63185;45.642;13.764;2024-02-23T03:14:06;12.10;79.50
74657;DHT22;63185;45.642;13.764;2024-02-23T03:16:31;12.20;79.10
74657;DHT22;63185;45.642;13.764;2024-02-23T03:18:59;12.20;79.20
74657;DHT22;63185;45.642;13.764;2024-02-23T03:21:25;12.20;79.50
74657;DHT22;63185;45.642;13.764;2024-02-23T03:23:51;12.20;79.40
74657;DHT22;63185;45.642;13.764;2024-02-23T03:26:16;12.20;79.30
74657;DHT22;63185;45.642;13.764;2024-02-23T03:28:42;12.10;79.70
74657;DHT22;63185;45.642;13.764;2024-02-23T03:31:08;12.10;80.00
74657;DHT22;63185;45.642;13.764;2024-02-23T03:33:34;12.20;79.80
74657;DHT22;63185;45.642;13.764;2024-02-23T03:35:59;12.20;79.20
74657;DHT22;63185;45.642;13.764;2024-02-23T03:38:25;12.20;79.20
74657;DHT22;63185;45.642;13.764;2024-02-23T03:40:51;12.10;79.40
74657;DHT22;63185;45.642;13.764;2024-02-23T03:43:16;12.10;79.60
74657;DHT22;63185;45.642;13.764;2024-02-23T03:45:42;12.10;79.70
74657;DHT22;63185;45.642;13.764;2024-02-23T03:48:08;12.10;79.80
74657;DHT22;63185;45.642;13.764;2024-02-23T03:50:33;12.10;79.70
74657;DHT22;63185;45.642;13.764;2024-02-23T03:52:59;12.10;79.90
74657;DHT22;63185;45.642;13.764;2024-02-23T03:55:25;12.20;79.70
74657;DHT22;63185;45.642;13.764;2024-02-23T03:57:50;12.10;80.00
74657;DHT22;63185;45.642;13.764;2024-02-23T04:00:17;12.10;79.90
74657;DHT22;63185;45.642;13.764;2024-02-23T04:02:44;12.10;80.00
74657;DHT22;63185;45.642;13.764;2024-02-23T04:05:10;12.10;79.80
74657;DHT22;63185;45.642;13.764;2024-02-23T04:07:36;12.10;80.10
74657;DHT22;63185;45.642;13.764;2024-02-23T04:10:02;12.10;79.90
74657;DHT22;63185;45.642;13.764;2024-02-23T04:12:30;12.10;80.00
74657;DHT22;63185;45.642;13.764;2024-02-23T04:14:56;12.10;80.20
74657;DHT22;63185;45.642;13.764;2024-02-23T04:17:22;12.10;80.10
74657;DHT22;63185;45.642;13.764;2024-02-23T04:19:48;12.10;80.10
74657;DHT22;63185;45.642;13.764;2024-02-23T04:22:13;12.10;79.70
74657;DHT22;63185;45.642;13.764;2024-02-23T04:24:40;12.10;79.30
74657;DHT22;63185;45.642;13.764;2024-02-23T04:27:07;12.10;79.50
74657;DHT22;63185;45.642;13.764;2024-02-23T04:29:33;12.20;79.30
74657;DHT22;63185;45.642;13.764;2024-02-23T04:32:02;12.10;79.00
74657;DHT22;63185;45.642;13.764;2024-02-23T04:34:28;12.10;79.10
74657;DHT22;63185;45.642;13.764;2024-02-23T04:36:55;12.10;79.30
74657;DHT22;63185;45.642;13.764;2024-02-23T04:39:21;12.00;78.90
74657;DHT22;63185;45.642;13.764;2024-02-23T04:41:47;12.00;78.80
74657;DHT22;63185;45.642;13.764;2024-02-23T04:44:13;12.00;78.70
74657;DHT22;63185;45.642;13.764;2024-02-23T04:46:39;12.10;78.50
74657;DHT22;63185;45.642;13.764;2024-02-23T04:49:04;12.10;78.60
74657;DHT22;63185;45.642;13.764;2024-02-23T04:51:30;12.00;78.80
74657;DHT22;63185;45.642;13.764;2024-02-23T04:53:56;11.90;78.70
74657;DHT22;63185;45.642;13.764;2024-02-23T04:56:22;12.10;78.40
74657;DHT22;63185;45.642;13.764;2024-02-23T04:58:51;12.10;77.80
74657;DHT22;63185;45.642;13.764;2024-02-23T05:01:17;12.10;78.00
74657;DHT22;63185;45.642;13.764;2024-02-23T05:03:42;12.10;77.70
74657;DHT22;63185;45.642;13.764;2024-02-23T05:06:08;12.10;77.50
74657;DHT22;63185;45.642;13.764;2024-02-23T05:08:33;12.10;77.20
74657;DHT22;63185;45.642;13.764;2024-02-23T05:10:59;12.20;76.90
74657;DHT22;63185;45.642;13.764;2024-02-23T05:13:25;12.20;77.20
74657;DHT22;63185;45.642;13.764;2024-02-23T05:15:51;12.10;76.30
74657;DHT22;63185;45.642;13.764;2024-02-23T05:18:17;12.20;76.80
74657;DHT22;63185;45.642;13.764;2024-02-23T05:20:42;12.20;76.90
74657;DHT22;63185;45.642;13.764;2024-02-23T05:23:08;12.20;76.40
74657;DHT22;63185;45.642;13.764;2024-02-23T05:25:34;12.20;76.30
74657;DHT22;63185;45.642;13.764;2024-02-23T05:28:00;12.20;76.30
74657;DHT22;63185;45.642;13.764;2024-02-23T05:30:25;12.10;76.60
74657;DHT22;63185;45.642;13.764;2024-02-23T05:32:52;12.10;75.80
74657;DHT22;63185;45.642;13.764;2024-02-23T05:35:18;12.10;76.10
74657;DHT22;63185;45.642;13.764;2024-02-23T05:37:44;12.20;75.70
74657;DHT22;63185;45.642;13.764;2024-02-23T05:40:10;12.20;75.80
74657;DHT22;63185;45.642;13.764;2024-02-23T05:42:37;12.30;74.80
74657;DHT22;63185;45.642;13.764;2024-02-23T05:45:03;12.30;73.80
74657;DHT22;63185;45.642;13.764;2024-02-23T05:47:37;12.30;74.50
74657;DHT22;63185;45.642;13.764;2024-02-23T05:50:07;12.40;74.50
74657;DHT22;63185;45.642;13.764;2024-02-23T05:52:34;12.50;74.00
74657;DHT22;63185;45.642;13.764;2024-02-23T05:55:02;12.40;74.10
74657;DHT22;63185;45.642;13.764;2024-02-23T05:57:29;12.40;73.40
74657;DHT22;63185;45.642;13.764;2024-02-23T05:59:55;12.50;72.90
74657;DHT22;63185;45.642;13.764;2024-02-23T06:02:25;12.50;73.00
74657;DHT22;63185;45.642;13.764;2024-02-23T06:04:51;12.50;72.60
74657;DHT22;63185;45.642;13.764;2024-02-23T06:07:16;12.60;72.10
74657;DHT22;63185;45.642;13.764;2024-02-23T06:09:45;12.60;71.90
74657;DHT22;63185;45.642;13.764;2024-02-23T06:12:11;12.60;71.70
74657;DHT22;63185;45.642;13.764;2024-02-23T06:14:36;12.70;70.60
74657;DHT22;63185;45.642;13.764;2024-02-23T06:17:02;12.80;70.40
74657;DHT22;63185;45.642;13.764;2024-02-23T06:19:28;12.80;69.90
74657;DHT22;63185;45.642;13.764;2024-02-23T06:21:54;12.80;70.10
74657;DHT22;63185;45.642;13.764;2024-02-23T06:24:20;12.80;69.90
74657;DHT22;63185;45.642;13.764;2024-02-23T06:26:46;12.80;70.10
74657;DHT22;63185;45.642;13.764;2024-02-23T06:29:14;12.90;69.90
74657;DHT22;63185;45.642;13.764;2024-02-23T06:31:39;12.90;70.50
74657;DHT22;63185;45.642;13.764;2024-02-23T06:34:06;12.90;70.40
74657;DHT22;63185;45.642;13.764;2024-02-23T06:36:32;12.90;71.20
74657;DHT22;63185;45.642;13.764;2024-02-23T06:38:57;12.90;72.00
74657;DHT22;63185;45.642;13.764;2024-02-23T06:41:23;13.00;72.90
74657;DHT22;63185;45.642;13.764;2024-02-23T06:43:49;13.00;73.30
74657;DHT22;63185;45.642;13.764;2024-02-23T06:46:14;13.10;73.40
74657;DHT22;63185;45.642;13.764;2024-02-23T06:48:40;13.10;73.60
74657;DHT22;63185;45.642;13.764;2024-02-23T06:51:06;13.10;73.90
74657;DHT22;63185;45.642;13.764;2024-02-23T06:53:35;13.10;74.30
74657;DHT22;63185;45.642;13.764;2024-02-23T06:56:00;13.10;74.20
74657;DHT22;63185;45.642;13.764;2024-02-23T06:58:26;13.10;74.40
74657;DHT22;63185;45.642;13.764;2024-02-23T07:00:52;13.20;74.10
74657;DHT22;63185;45.642;13.764;2024-02-23T07:03:18;13.20;74.40
74657;DHT22;63185;45.642;13.764;2024-02-23T07:05:43;13.30;74.30
74657;DHT22;63185;45.642;13.764;2024-02-23T07:08:11;13.40;74.30
74657;DHT22;63185;45.642;13.764;2024-02-23T07:10:36;13.30;74.10
74657;DHT22;63185;45.642;13.764;2024-02-23T07:13:02;13.30;74.20
74657;DHT22;63185;45.642;13.764;2024-02-23T07:15:28;13.40;74.20
74657;DHT22;63185;45.642;13.764;2024-02-23T07:17:55;13.40;74.00
74657;DHT22;63185;45.642;13.764;2024-02-23T07:20:21;13.50;73.90
74657;DHT22;63185;45.642;13.764;2024-02-23T07:22:47;13.50;74.10
74657;DHT22;63185;45.642;13.764;2024-02-23T07:25:19;13.50;74.10
74657;DHT22;63185;45.642;13.764;2024-02-23T07:27:46;13.60;73.80
74657;DHT22;63185;45.642;13.764;2024-02-23T07:30:12;13.60;73.90
74657;DHT22;63185;45.642;13.764;2024-02-23T07:32:38;13.60;73.80
74657;DHT22;63185;45.642;13.764;2024-02-23T07:35:04;13.60;74.10
74657;DHT22;63185;45.642;13.764;2024-02-23T07:37:30;13.60;74.00
74657;DHT22;63185;45.642;13.764;2024-02-23T07:39:55;13.70;73.90
74657;DHT22;63185;45.642;13.764;2024-02-23T07:42:21;13.70;73.10
74657;DHT22;63185;45.642;13.764;2024-02-23T07:44:47;13.70;73.50
74657;DHT22;63185;45.642;13.764;2024-02-23T07:47:13;13.60;73.50
74657;DHT22;63185;45.642;13.764;2024-02-23T07:49:39;13.70;73.00
74657;DHT22;63185;45.642;13.764;2024-02-23T07:55:10;13.80;73.60
74657;DHT22;63185;45.642;13.764;2024-02-23T07:57:39;13.80;72.80
74657;DHT22;63185;45.642;13.764;2024-02-23T08:00:06;13.80;72.40
74657;DHT22;63185;45.642;13.764;2024-02-23T08:02:35;13.80;71.90
74657;DHT22;63185;45.642;13.764;2024-02-23T08:05:01;13.90;71.80
74657;DHT22;63185;45.642;13.764;2024-02-23T08:07:27;13.90;71.70
74657;DHT22;63185;45.642;13.764;2024-02-23T08:09:53;13.90;71.60
74657;DHT22;63185;45.642;13.764;2024-02-23T08:12:19;13.90;71.50
74657;DHT22;63185;45.642;13.764;2024-02-23T08:14:45;14.00;71.50
74657;DHT22;63185;45.642;13.764;2024-02-23T08:17:12;13.90;71.80
74657;DHT22;63185;45.642;13.764;2024-02-23T08:19:37;13.90;71.60
74657;DHT22;63185;45.642;13.764;2024-02-23T08:22:03;14.00;71.40
74657;DHT22;63185;45.642;13.764;2024-02-23T08:24:29;14.10;70.50
74657;DHT22;63185;45.642;13.764;2024-02-23T08:26:54;14.20;70.30
74657;DHT22;63185;45.642;13.764;2024-02-23T08:29:20;14.10;70.40
74657;DHT22;63185;45.642;13.764;2024-02-23T08:31:46;14.10;69.90
74657;DHT22;63185;45.642;13.764;2024-02-23T08:34:11;14.10;70.10
74657;DHT22;63185;45.642;13.764;2024-02-23T08:36:37;14.20;69.70
74657;DHT22;63185;45.642;13.764;2024-02-23T08:39:03;14.10;69.90
74657;DHT22;63185;45.642;13.764;2024-02-23T08:41:30;14.10;69.90
74657;DHT22;63185;45.642;13.764;2024-02-23T08:43:55;14.20;69.70
74657;DHT22;63185;45.642;13.764;2024-02-23T08:46:21;14.20;69.90
74657;DHT22;63185;45.642;13.764;2024-02-23T08:48:47;14.10;69.90
74657;DHT22;63185;45.642;13.764;2024-02-23T08:51:13;14.20;69.70
74657;DHT22;63185;45.642;13.764;2024-02-23T08:53:38;14.20;69.50
74657;DHT22;63185;45.642;13.764;2024-02-23T08:56:06;14.20;69.10
74657;DHT22;63185;45.642;13.764;2024-02-23T08:58:32;14.20;69.30
74657;DHT22;63185;45.642;13.764;2024-02-23T09:00:58;14.20;68.80
74657;DHT22;63185;45.642;13.764;2024-02-23T09:03:23;14.20;68.90
74657;DHT22;63185;45.642;13.764;2024-02-23T09:05:49;14.20;69.00
74657;DHT22;63185;45.642;13.764;2024-02-23T09:08:15;14.20;69.10
74657;DHT22;63185;45.642;13.764;2024-02-23T09:10:41;14.20;69.40
74657;DHT22;63185;45.642;13.764;2024-02-23T09:13:07;14.20;68.90
74657;DHT22;63185;45.642;13.764;2024-02-23T09:15:32;14.20;69.10
74657;DHT22;63185;45.642;13.764;2024-02-23T09:17:58;14.20;68.60
74657;DHT22;63185;45.642;13.764;2024-02-23T09:20:24;14.20;68.60
74657;DHT22;63185;45.642;13.764;2024-02-23T09:22:49;14.20;68.40
74657;DHT22;63185;45.642;13.764;2024-02-23T09:25:15;14.20;68.40
74657;DHT22;63185;45.642;13.764;2024-02-23T09:27:41;14.30;68.90
74657;DHT22;63185;45.642;13.764;2024-02-23T09:30:17;14.30;68.80
74657;DHT22;63185;45.642;13.764;2024-02-23T09:32:43;14.30;68.70
74657;DHT22;63185;45.642;13.764;2024-02-23T09:35:10;14.20;69.00
74657;DHT22;63185;45.642;13.764;2024-02-23T09:37:35;14.20;68.90
74657;DHT22;63185;45.642;13.764;2024-02-23T09:40:01;14.10;69.10
74657;DHT22;63185;45.642;13.764;2024-02-23T09:42:28;14.20;69.10
74657;DHT22;63185;45.642;13.764;2024-02-23T09:44:59;14.20;69.10
74657;DHT22;63185;45.642;13.764;2024-02-23T09:47:28;14.20;69.40
74657;DHT22;63185;45.642;13.764;2024-02-23T09:49:54;14.30;69.10
74657;DHT22;63185;45.642;13.764;2024-02-23T09:52:21;14.30;69.50
74657;DHT22;63185;45.642;13.764;2024-02-23T09:54:47;14.30;69.60
74657;DHT22;63185;45.642;13.764;2024-02-23T09:57:14;14.20;69.70
74657;DHT22;63185;45.642;13.764;2024-02-23T09:59:41;14.30;69.90
74657;DHT22;63185;45.642;13.764;2024-02-23T10:02:14;14.20;70.20
74657;DHT22;63185;45.642;13.764;2024-02-23T10:04:42;14.30;69.60
74657;DHT22;63185;45.642;13.764;2024-02-23T10:07:09;14.30;69.70
74657;DHT22;63185;45.642;13.764;2024-02-23T10:09:35;14.30;69.60
74657;DHT22;63185;45.642;13.764;2024-02-23T10:12:04;14.30;69.60
74657;DHT22;63185;45.642;13.764;2024-02-23T10:14:30;14.30;69.70
74657;DHT22;63185;45.642;13.764;2024-02-23T10:16:55;14.30;69.60
74657;DHT22;63185;45.642;13.764;2024-02-23T10:19:22;14.40;69.60
74657;DHT22;63185;45.642;13.764;2024-02-23T10:21:48;14.30;69.70
74657;DHT22;63185;45.642;13.764;2024-02-23T10:24:18;14.30;69.80
74657;DHT22;63185;45.642;13.764;2024-02-23T10:26:44;14.40;69.60
74657;DHT22;63185;45.642;13.764;2024-02-23T10:29:10;14.40;69.80
74657;DHT22;63185;45.642;13.764;2024-02-23T10:31:36;14.50;69.60
74657;DHT22;63185;45.642;13.764;2024-02-23T10:34:08;14.60;69.40
74657;DHT22;63185;45.642;13.764;2024-02-23T10:36:40;14.70;68.80
74657;DHT22;63185;45.642;13.764;2024-02-23T10:39:06;14.80;68.50
74657;DHT22;63185;45.642;13.764;2024-02-23T10:41:35;14.80;68.30
74657;DHT22;63185;45.642;13.764;2024-02-23T10:44:05;14.80;68.40
74657;DHT22;63185;45.642;13.764;2024-02-23T10:46:33;14.70;68.90
74657;DHT22;63185;45.642;13.764;2024-02-23T10:48:59;14.60;69.30
74657;DHT22;63185;45.642;13.764;2024-02-23T10:51:25;14.60;69.30
74657;DHT22;63185;45.642;13.764;2024-02-23T10:53:52;14.60;69.60
74657;DHT22;63185;45.642;13.764;2024-02-23T10:56:18;14.70;69.60
74657;DHT22;63185;45.642;13.764;2024-02-23T10:58:45;14.60;69.90
74657;DHT22;63185;45.642;13.764;2024-02-23T11:01:12;14.60;70.00
74657;DHT22;63185;45.642;13.764;2024-02-23T11:03:42;14.60;69.80
74657;DHT22;63185;45.642;13.764;2024-02-23T11:06:08;14.60;70.00
74657;DHT22;63185;45.642;13.764;2024-02-23T11:08:34;14.60;69.70
74657;DHT22;63185;45.642;13.764;2024-02-23T11:11:11;14.60;69.50
74657;DHT22;63185;45.642;13.764;2024-02-23T11:13:39;14.60;69.90
74657;DHT22;63185;45.642;13.764;2024-02-23T11:16:07;14.60;70.20
74657;DHT22;63185;45.642;13.764;2024-02-23T11:18:35;14.60;70.20
74657;DHT22;63185;45.642;13.764;2024-02-23T11:21:04;14.50;71.10
74657;DHT22;63185;45.642;13.764;2024-02-23T11:26:07;14.50;72.10
74657;DHT22;63185;45.642;13.764;2024-02-23T11:28:50;14.50;72.20
74657;DHT22;63185;45.642;13.764;2024-02-23T11:31:22;14.40;73.00
74657;DHT22;63185;45.642;13.764;2024-02-23T11:33:55;14.40;73.30
74657;DHT22;63185;45.642;13.764;2024-02-23T11:36:29;14.40;73.70
74657;DHT22;63185;45.642;13.764;2024-02-23T11:38:59;14.30;73.80
74657;DHT22;63185;45.642;13.764;2024-02-23T11:41:27;14.30;74.10
74657;DHT22;63185;45.642;13.764;2024-02-23T11:43:54;14.30;74.00
74657;DHT22;63185;45.642;13.764;2024-02-23T11:46:28;14.20;73.90
74657;DHT22;63185;45.642;13.764;2024-02-23T11:48:54;14.30;73.70
74657;DHT22;63185;45.642;13.764;2024-02-23T11:51:21;14.30;73.50
74657;DHT22;63185;45.642;13.764;2024-02-23T11:53:49;14.30;73.20
74657;DHT22;63185;45.642;13.764;2024-02-23T11:56:15;14.30;73.20
74657;DHT22;63185;45.642;13.764;2024-02-23T11:58:42;14.40;73.30
74657;DHT22;63185;45.642;13.764;2024-02-23T12:01:08;14.40;73.30
74657;DHT22;63185;45.642;13.764;2024-02-23T12:03:34;14.30;73.20
74657;DHT22;63185;45.642;13.764;2024-02-23T12:06:00;14.40;73.30
74657;DHT22;63185;45.642;13.764;2024-02-23T12:08:27;14.40;73.40
74657;DHT22;63185;45.642;13.764;2024-02-23T12:10:54;14.50;73.80
74657;DHT22;63185;45.642;13.764;2024-02-23T12:13:21;14.40;73.90
74657;DHT22;63185;45.642;13.764;2024-02-23T12:15:47;14.50;73.50
74657;DHT22;63185;45.642;13.764;2024-02-23T12:18:13;14.50;73.50
74657;DHT22;63185;45.642;13.764;2024-02-23T12:20:40;14.60;73.00
74657;DHT22;63185;45.642;13.764;2024-02-23T12:23:06;14.60;73.00
74657;DHT22;63185;45.642;13.764;2024-02-23T12:25:33;14.70;72.50
74657;DHT22;63185;45.642;13.764;2024-02-23T12:27:59;14.80;72.40
74657;DHT22;63185;45.642;13.764;2024-02-23T12:30:26;14.70;72.40
74657;DHT22;63185;45.642;13.764;2024-02-23T12:33:09;14.80;72.20
74657;DHT22;63185;45.642;13.764;2024-02-23T12:35:35;14.80;72.20
74657;DHT22;63185;45.642;13.764;2024-02-23T12:38:03;14.90;71.80
74657;DHT22;63185;45.642;13.764;2024-02-23T12:40:29;14.90;71.80
74657;DHT22;63185;45.642;13.764;2024-02-23T12:42:55;15.00;72.30
74657;DHT22;63185;45.642;13.764;2024-02-23T12:45:21;15.00;72.80
74657;DHT22;63185;45.642;13.764;2024-02-23T12:47:47;15.00;72.70
74657;DHT22;63185;45.642;13.764;2024-02-23T12:50:12;15.00;72.50
74657;DHT22;63185;45.642;13.764;2024-02-23T12:52:38;15.10;72.30
74657;DHT22;63185;45.642;13.764;2024-02-23T12:55:04;15.10;71.90
74657;DHT22;63185;45.642;13.764;2024-02-23T12:57:30;15.10;71.50
74657;DHT22;63185;45.642;13.764;2024-02-23T12:59:55;15.10;71.70
74657;DHT22;63185;45.642;13.764;2024-02-23T13:02:21;15.10;71.60
74657;DHT22;63185;45.642;13.764;2024-02-23T13:04:47;15.10;72.20
74657;DHT22;63185;45.642;13.764;2024-02-23T13:07:17;15.00;72.70
74657;DHT22;63185;45.642;13.764;2024-02-23T13:09:44;15.00;72.90
74657;DHT22;63185;45.642;13.764;2024-02-23T13:12:10;14.90;73.20
74657;DHT22;63185;45.642;13.764;2024-02-23T13:14:35;14.90;73.20
74657;DHT22;63185;45.642;13.764;2024-02-23T13:17:01;15.00;73.10
74657;DHT22;63185;45.642;13.764;2024-02-23T13:19:27;14.80;73.70
74657;DHT22;63185;45.642;13.764;2024-02-23T13:21:52;14.90;74.10
74657;DHT22;63185;45.642;13.764;2024-02-23T13:24:18;14.90;74.30
74657;DHT22;63185;45.642;13.764;2024-02-23T13:26:44;14.80;74.40
74657;DHT22;63185;45.642;13.764;2024-02-23T13:29:10;14.80;74.60
74657;DHT22;63185;45.642;13.764;2024-02-23T13:31:36;14.70;74.20
74657;DHT22;63185;45.642;13.764;2024-02-23T13:34:03;14.70;74.00
74657;DHT22;63185;45.642;13.764;2024-02-23T13:36:29;14.70;74.20
74657;DHT22;63185;45.642;13.764;2024-02-23T13:38:55;14.70;74.50
74657;DHT22;63185;45.642;13.764;2024-02-23T13:41:20;14.80;74.70
74657;DHT22;63185;45.642;13.764;2024-02-23T13:43:46;14.70;74.80
74657;DHT22;63185;45.642;13.764;2024-02-23T13:46:12;14.60;75.10
74657;DHT22;63185;45.642;13.764;2024-02-23T13:48:38;14.60;75.00
74657;DHT22;63185;45.642;13.764;2024-02-23T13:51:04;14.70;75.10
74657;DHT22;63185;45.642;13.764;2024-02-23T13:53:31;14.60;75.60
74657;DHT22;63185;45.642;13.764;2024-02-23T13:55:57;14.60;75.60
74657;DHT22;63185;45.642;13.764;2024-02-23T13:58:23;14.60;75.70
74657;DHT22;63185;45.642;13.764;2024-02-23T14:00:48;14.50;76.20
74657;DHT22;63185;45.642;13.764;2024-02-23T14:03:16;14.50;76.00
74657;DHT22;63185;45.642;13.764;2024-02-23T14:05:43;14.60;76.10
74657;DHT22;63185;45.642;13.764;2024-02-23T14:08:10;14.40;76.40
74657;DHT22;63185;45.642;13.764;2024-02-23T14:10:36;14.40;77.10
74657;DHT22;63185;45.642;13.764;2024-02-23T14:13:02;14.30;77.30
74657;DHT22;63185;45.642;13.764;2024-02-23T14:15:28;14.30;76.90
74657;DHT22;63185;45.642;13.764;2024-02-23T14:17:53;14.40;77.00
74657;DHT22;63185;45.642;13.764;2024-02-23T14:20:19;14.40;76.70
74657;DHT22;63185;45.642;13.764;2024-02-23T14:22:45;14.30;76.90
74657;DHT22;63185;45.642;13.764;2024-02-23T14:25:10;14.30;77.20
74657;DHT22;63185;45.642;13.764;2024-02-23T14:27:36;14.30;76.80
74657;DHT22;63185;45.642;13.764;2024-02-23T14:30:02;14.30;76.80
74657;DHT22;63185;45.642;13.764;2024-02-23T14:32:28;14.40;76.90
74657;DHT22;63185;45.642;13.764;2024-02-23T14:34:54;14.30;77.10
74657;DHT22;63185;45.642;13.764;2024-02-23T14:37:20;14.20;77.50
74657;DHT22;63185;45.642;13.764;2024-02-23T14:39:46;14.30;77.50
74657;DHT22;63185;45.642;13.764;2024-02-23T14:42:11;14.20;77.80
74657;DHT22;63185;45.642;13.764;2024-02-23T14:44:37;14.20;78.00
74657;DHT22;63185;45.642;13.764;2024-02-23T14:47:04;14.20;77.70
74657;DHT22;63185;45.642;13.764;2024-02-23T14:49:31;14.20;77.70
74657;DHT22;63185;45.642;13.764;2024-02-23T14:51:57;14.30;77.30
74657;DHT22;63185;45.642;13.764;2024-02-23T14:54:22;14.20;77.20
74657;DHT22;63185;45.642;13.764;2024-02-23T14:56:48;14.20;76.80
74657;DHT22;63185;45.642;13.764;2024-02-23T14:59:14;14.30;76.60
74657;DHT22;63185;45.642;13.764;2024-02-23T15:01:40;14.30;76.40
74657;DHT22;63185;45.642;13.764;2024-02-23T15:04:08;14.40;75.70
74657;DHT22;63185;45.642;13.764;2024-02-23T15:06:35;14.40;75.80
74657;DHT22;63185;45.642;13.764;2024-02-23T15:09:04;14.40;75.90
74657;DHT22;63185;45.642;13.764;2024-02-23T15:11:30;14.50;75.40
74657;DHT22;63185;45.642;13.764;2024-02-23T15:13:55;14.40;75.40
74657;DHT22;63185;45.642;13.764;2024-02-23T15:16:25;14.50;75.20